Time;durP1;ratioP1;P1;durP2;ratioP2;P2;SDS_P1;SDS_P2;PMS_P1;PMS_P2;Temp;Humidity;BMP_temperature;BMP_pressure;BME280_temperature;BME280_humidity;BME280_pressure;Samples;Min_cycle;Max_cycle;Signal;HPM_P1;HPM_P2
2021/12/02 00:02:07;;;;;;;2.45;0.50;;;;;;;;;;5055185;28;20036;-65
2021/12/02 00:04:33;;;;;;;5.15;0.63;;;5.80;99.90;;;;;;5054486;28;20040;-65
2021/12/02 00:06:59;;;;;;;10.52;0.73;;;;;;;;;;5054047;28;20037;-66
2021/12/02 00:09:25;;;;;;;5.78;0.63;;;;;;;;;;5057278;28;20130;-65
2021/12/02 00:11:51;;;;;;;1.42;0.60;;;;;;;;;;5050272;28;20120;-65
2021/12/02 00:14:24;;;;;;;2.72;0.73;;;;;;;;;;5052794;28;20512;-64
2021/12/02 00:17:03;;;;;;;5.88;0.82;;;;;;;;;;5055572;28;20043;-63
2021/12/02 00:22:14;;;;;;;6.85;1.38;;;;;;;;;;5054388;28;20515;-64
2021/12/02 00:24:40;;;;;;;7.80;1.20;;;;;;;;;;5050573;28;20115;-64
2021/12/02 00:27:06;;;;;;;3.47;0.63;;;;;;;;;;5058807;28;20039;-64
2021/12/02 00:29:32;;;;;;;4.55;1.05;;;;;;;;;;5056500;28;20036;-64
2021/12/02 00:31:58;;;;;;;3.65;0.75;;;;;;;;;;5056454;28;20078;-63
2021/12/02 00:34:24;;;;;;;4.13;0.95;;;;;;;;;;5054300;28;20102;-64
2021/12/02 00:36:50;;;;;;;6.10;0.93;;;;;;;;;;5052077;28;20424;-64
2021/12/02 00:39:16;;;;;;;6.43;1.00;;;;;;;;;;5056783;28;20063;-64
2021/12/02 00:41:41;;;;;;;5.75;0.90;;;5.50;99.90;;;;;;5050957;28;20116;-64
2021/12/02 00:44:07;;;;;;;3.38;0.63;;;;;;;;;;5049464;28;20039;-65
2021/12/02 00:46:34;;;;;;;3.90;0.47;;;;;;;;;;5061536;28;20033;-64
2021/12/02 00:49:03;;;;;;;3.22;0.60;;;;;;;;;;5053159;28;20028;-64
2021/12/02 00:51:29;;;;;;;4.90;0.65;;;;;;;;;;5053338;28;20041;-64
2021/12/02 00:53:55;;;;;;;4.40;0.73;;;;;;;;;;5049925;28;20037;-64
2021/12/02 00:56:21;;;;;;;8.68;0.80;;;;;;;;;;5055550;28;20575;-65
2021/12/02 00:58:47;;;;;;;5.15;0.60;;;;;;;;;;5057104;28;20828;-65
2021/12/02 01:01:13;;;;;;;1.98;0.70;;;;;;;;;;5058896;28;20040;-65
2021/12/02 01:03:39;;;;;;;3.67;0.63;;;;;;;;;;5059283;28;20055;-65
2021/12/02 01:06:05;;;;;;;2.58;0.63;;;;;;;;;;5059846;28;20043;-65
2021/12/02 01:08:31;;;;;;;4.95;0.60;;;5.70;99.90;;;;;;5061464;28;20041;-65
2021/12/02 01:10:57;;;;;;;2.05;0.50;;;;;;;;;;5051503;28;20133;-65
2021/12/02 01:13:22;;;;;;;0.55;0.40;;;;;;;;;;5061550;28;20564;-64
2021/12/02 01:15:48;;;;;;;3.38;0.60;;;;;;;;;;5051838;28;20507;-63
2021/12/02 01:18:14;;;;;;;4.55;0.80;;;;;;;;;;5052923;28;20075;-63
2021/12/02 01:20:40;;;;;;;1.98;0.38;;;3.70;99.90;;;;;;5054123;28;20020;-64
2021/12/02 01:23:06;;;;;;;0.73;0.50;;;;;;;;;;5050391;28;20032;-63
2021/12/02 01:25:32;;;;;;;3.85;0.73;;;;;;;;;;5054802;28;20025;-64
2021/12/02 01:27:58;;;;;;;3.15;0.28;;;;;;;;;;5054184;28;20497;-64
2021/12/02 01:30:24;;;;;;;6.57;0.60;;;;;;;;;;5054726;28;20570;-63
2021/12/02 01:32:50;;;;;;;3.75;0.50;;;;;;;;;;5062542;28;20040;-64
2021/12/02 01:35:16;;;;;;;1.95;0.30;;;;;;;;;;5049039;28;20071;-64
2021/12/02 01:37:42;;;;;;;5.28;0.70;;;;;;;;;;5054542;28;20033;-64
2021/12/02 01:40:08;;;;;;;5.57;0.65;;;;;;;;;;5055588;28;20032;-64
2021/12/02 01:42:34;;;;;;;2.33;0.50;;;3.50;99.90;;;;;;5058794;28;20028;-64
2021/12/02 01:45:00;;;;;;;0.60;0.55;;;;;;;;;;5049223;28;20036;-64
2021/12/02 01:47:27;;;;;;;3.30;0.50;;;;;;;;;;5049689;28;20031;-64
2021/12/02 01:49:53;;;;;;;2.03;0.45;;;;;;;;;;5055247;28;20089;-64
2021/12/02 01:52:19;;;;;;;1.52;0.63;;;;;;;;;;5050372;28;20036;-64
2021/12/02 01:54:45;;;;;;;2.10;0.40;;;;;;;;;;5055086;28;20029;-64
2021/12/02 01:57:11;;;;;;;4.65;0.80;;;;;;;;;;5051747;28;20036;-63
2021/12/02 01:59:36;;;;;;;3.05;0.77;;;;;;;;;;5052769;28;20086;-63
2021/12/02 02:02:02;;;;;;;1.88;0.80;;;;;;;;;;5052785;28;20029;-63
2021/12/02 02:04:28;;;;;;;4.53;0.70;;;;;;;;;;5048123;28;20547;-64
2021/12/02 02:06:54;;;;;;;6.43;0.75;;;;;;;;;;5054307;28;21038;-63
2021/12/02 02:09:20;;;;;;;1.42;0.60;;;;;;;;;;5056036;28;20033;-63
2021/12/02 02:11:46;;;;;;;1.40;0.40;;;;;;;;;;5056158;28;20362;-65
2021/12/02 02:14:12;;;;;;;7.00;0.75;;;;;;;;;;5051764;28;20033;-64
2021/12/02 02:16:40;;;;;;;4.40;0.82;;;;;;;;;;5048840;28;20029;-64
2021/12/02 02:19:08;;;;;;;4.78;0.70;;;;;;;;;;5053683;28;20086;-64
2021/12/02 02:21:36;;;;;;;4.50;1.00;;;;;;;;;;5053768;28;20909;-65
2021/12/02 02:24:02;;;;;;;5.30;1.88;;;;;;;;;;5055751;28;20032;-63
2021/12/02 02:26:33;;;;;;;7.53;1.50;;;;;;;;;;5049464;28;20029;-63
2021/12/02 02:28:59;;;;;;;1.67;0.55;;;;;;;;;;5050208;28;20800;-63
2021/12/02 02:31:25;;;;;;;2.88;0.77;;;;;;;;;;5055030;28;20040;-64
2021/12/02 02:33:53;;;;;;;4.13;0.90;;;;;;;;;;5048038;28;20024;-63
2021/12/02 02:36:19;;;;;;;5.68;0.80;;;;;;;;;;5048528;28;20041;-64
2021/12/02 02:38:54;;;;;;;6.28;0.98;;;;;;;;;;5051918;28;20033;-64
2021/12/02 02:41:21;;;;;;;2.75;0.80;;;;;;;;;;5054880;28;20044;-64
2021/12/02 02:43:48;;;;;;;4.25;0.82;;;;;;;;;;5050878;28;20028;-64
2021/12/02 02:47:26;;;;;;;7.05;1.80;;;;;;;;;;5045787;28;20941;-64
2021/12/02 02:49:52;;;;;;;6.50;0.90;;;;;;;;;;5050964;28;20733;-64
2021/12/02 02:52:18;;;;;;;4.60;0.90;;;;;;;;;;5046036;28;20553;-64
2021/12/02 02:54:44;;;;;;;5.35;1.17;;;;;;;;;;5043451;28;20029;-64
2021/12/02 02:57:12;;;;;;;3.65;0.82;;;;;;;;;;5051140;28;20527;-64
2021/12/02 03:06:06;;;;;;;3.90;0.85;;;;;;;;;;4942764;28;20194;-64
2021/12/02 03:08:39;;;;;;;5.00;1.10;;;;;;;;;;4963223;28;20182;-64
2021/12/02 03:11:06;;;;;;;2.97;0.70;;;;;;;;;;5027851;28;20664;-64
2021/12/02 03:13:47;;;;;;;7.28;0.98;;;;;;;;;;5046139;28;20536;-64
2021/12/02 03:18:57;;;;;;;16.33;1.63;;;;;;;;;;5042933;28;20028;-64
2021/12/02 03:21:23;;;;;;;5.53;0.70;;;;;;;;;;5045815;28;20560;-64
2021/12/02 03:23:49;;;;;;;3.33;1.00;;;;;;;;;;5045531;28;20037;-64
2021/12/02 03:26:15;;;;;;;31.83;3.83;;;;;;;;;;5043902;28;20060;-64
2021/12/02 03:28:41;;;;;;;47.90;5.03;;;;;;;;;;5055387;28;20021;-64
2021/12/02 03:31:07;;;;;;;54.08;5.63;;;;;;;;;;5048811;28;20068;-64
2021/12/02 03:33:33;;;;;;;57.63;5.82;;;;;;;;;;5044782;28;20033;-64
2021/12/02 03:35:59;;;;;;;46.65;5.15;;;;;;;;;;5041683;28;20033;-64
2021/12/02 03:38:25;;;;;;;61.65;5.53;;;;;;;;;;5051236;28;20116;-64
2021/12/02 03:40:51;;;;;;;37.85;4.03;;;;;;;;;;5052099;28;20036;-64
2021/12/02 03:43:17;;;;;;;59.80;6.60;;;;;;;;;;5045827;28;20389;-64
2021/12/02 03:45:43;;;;;;;48.20;5.25;;;;;;;;;;5041272;28;20041;-64
2021/12/02 03:48:09;;;;;;;60.80;6.45;;;;;;;;;;5047755;28;20024;-64
2021/12/02 03:50:35;;;;;;;41.78;4.32;;;;;;;;;;5049893;28;20025;-64
2021/12/02 03:53:01;;;;;;;64.43;7.10;;;;;;;;;;5046736;28;20025;-64
2021/12/02 03:55:26;;;;;;;50.00;5.22;;;;;;;;;;5041396;28;20041;-64
2021/12/02 03:57:52;;;;;;;48.55;4.85;;;;;;;;;;5036904;28;20040;-64
2021/12/02 04:00:18;;;;;;;44.50;4.55;;;;;;;;;;5035139;28;20040;-64
2021/12/02 04:02:44;;;;;;;53.60;5.00;;;;;;;;;;5033503;28;20934;-64
2021/12/02 04:05:10;;;;;;;40.72;4.05;;;;;;;;;;5030042;28;20037;-64
2021/12/02 04:07:36;;;;;;;38.95;4.10;;;;;;;;;;5031359;28;20116;-64
2021/12/02 04:10:02;;;;;;;50.78;5.13;;;;;;;;;;5039511;28;20053;-65
2021/12/02 04:12:44;;;;;;;33.15;3.38;;;;;;;;;;5035878;28;20025;-65
2021/12/02 04:15:14;;;;;;;30.20;3.63;;;;;;;;;;5028172;28;20295;-65
2021/12/02 04:17:41;;;;;;;44.47;4.78;;;;;;;;;;5030046;28;20053;-64
2021/12/02 04:20:07;;;;;;;50.25;5.32;;;;;;;;;;5037752;28;20480;-65
2021/12/02 04:22:33;;;;;;;48.55;5.28;;;;;;;;;;5035169;28;20028;-65
2021/12/02 04:24:59;;;;;;;48.35;5.00;;;;;;;;;;5024977;28;20025;-64
2021/12/02 04:27:25;;;;;;;42.20;4.25;;;;;;;;;;5026183;28;20022;-64
2021/12/02 04:29:51;;;;;;;53.13;4.97;;;;;;;;;;5035578;28;20393;-64
2021/12/02 04:32:17;;;;;;;62.22;6.13;;;;;;;;;;5033693;28;20033;-65
2021/12/02 04:34:43;;;;;;;59.10;5.70;;;;;;;;;;5031707;28;20029;-65
2021/12/02 04:37:09;;;;;;;44.38;4.50;;;;;;;;;;5026793;28;20037;-64
2021/12/02 04:39:35;;;;;;;54.63;5.35;;;;;;;;;;5032771;28;20036;-64
2021/12/02 04:42:01;;;;;;;50.67;5.25;;;;;;;;;;5033880;28;20432;-64
2021/12/02 04:44:28;;;;;;;48.72;5.00;;;;;;;;;;5029753;28;20472;-64
2021/12/02 04:46:54;;;;;;;52.80;5.32;;;;;;;;;;5025790;28;20035;-64
2021/12/02 04:49:20;;;;;;;56.22;5.90;;;;;;;;;;5037537;28;20056;-65
2021/12/02 04:51:46;;;;;;;46.63;5.22;;;;;;;;;;5036243;28;20017;-65
2021/12/02 04:54:12;;;;;;;36.67;4.00;;;;;;;;;;5033163;28;20559;-64
2021/12/02 04:56:38;;;;;;;62.65;6.80;;;;;;;;;;5024763;28;20033;-65
2021/12/02 04:59:04;;;;;;;56.63;5.88;;;;;;;;;;5033935;28;20074;-65
2021/12/02 05:01:30;;;;;;;23.42;2.20;;;;;;;;;;5034232;28;20025;-65
2021/12/02 05:03:56;;;;;;;13.95;1.77;;;;;;;;;;5033832;28;20474;-65
2021/12/02 05:06:22;;;;;;;55.20;5.65;;;;;;;;;;5023117;28;20079;-65
2021/12/02 05:08:48;;;;;;;36.83;3.88;;;;;;;;;;5033188;28;20037;-65
2021/12/02 05:11:14;;;;;;;49.05;5.25;;;;;;;;;;5031295;28;20143;-65
2021/12/02 05:13:40;;;;;;;51.80;5.50;;;;;;;;;;5031968;28;20544;-65
2021/12/02 05:16:06;;;;;;;40.95;4.30;;;;;;;;;;5027748;28;20033;-65
2021/12/02 05:18:32;;;;;;;38.15;4.32;;;;;;;;;;5030570;28;20794;-65
2021/12/02 05:20:59;;;;;;;28.25;3.30;;;;;;;;;;5039052;28;20135;-66
2021/12/02 05:23:25;;;;;;;24.60;3.40;;;;;;;;;;5033085;28;20115;-65
2021/12/02 05:25:51;;;;;;;29.58;3.90;;;;;;;;;;5028813;28;20119;-64
2021/12/02 05:28:18;;;;;;;29.27;4.30;;;;;;;;;;5021628;28;20025;-64
2021/12/02 05:30:44;;;;;;;33.80;4.93;;;;;;;;;;5037662;28;20024;-65
2021/12/02 05:33:10;;;;;;;47.25;6.00;;;;;;;;;;5030451;28;20391;-64
2021/12/02 05:35:36;;;;;;;33.75;4.47;;;;;;;;;;5027175;28;20040;-65
2021/12/02 05:38:02;;;;;;;35.75;4.45;;;;;;;;;;5024178;28;20485;-65
2021/12/02 05:40:28;;;;;;;39.70;4.97;;;;;;;;;;5032748;28;20029;-65
2021/12/02 05:42:54;;;;;;;43.05;6.03;;;;;;;;;;5032671;28;20032;-65
2021/12/02 05:45:20;;;;;;;38.90;4.55;;;;;;;;;;5031519;28;20041;-64
2021/12/02 05:47:46;;;;;;;29.73;3.50;;;;;;;;;;5008684;28;20036;-65
2021/12/02 05:50:12;;;;;;;41.97;5.63;;;;;;;;;;5038639;28;20036;-65
2021/12/02 05:52:38;;;;;;;39.83;4.53;;;;;;;;;;5033099;28;20025;-65
2021/12/02 05:55:04;;;;;;;35.03;4.60;;;;;;;;;;5027130;28;20533;-65
2021/12/02 05:57:31;;;;;;;42.78;5.28;;;;;;;;;;5020552;28;20025;-65
2021/12/02 05:59:57;;;;;;;48.60;5.60;;;;;;;;;;5028762;28;20040;-65
2021/12/02 06:02:23;;;;;;;50.60;5.05;;;;;;;;;;5023646;28;20041;-65
2021/12/02 06:04:53;;;;;;;33.70;3.83;;;;;;;;;;5018711;28;20111;-65
2021/12/02 06:07:19;;;;;;;55.85;5.78;;;;;;;;;;5024895;28;20037;-64
2021/12/02 06:09:45;;;;;;;68.40;7.57;;;;;;;;;;5029483;28;20136;-65
2021/12/02 06:12:11;;;;;;;52.58;6.05;;;;;;;;;;5028183;28;20033;-64
2021/12/02 06:14:37;;;;;;;48.08;5.40;;;;;;;;;;5025497;28;20033;-64
2021/12/02 06:17:03;;;;;;;37.80;4.15;;;;;;;;;;5021162;28;20029;-65
2021/12/02 06:19:28;;;;;;;45.00;4.55;;;;;;;;;;5023425;28;20082;-65
2021/12/02 06:21:55;;;;;;;51.80;5.70;;;;;;;;;;5028228;28;20028;-64
2021/12/02 06:24:28;;;;;;;54.70;5.85;;;;;;;;;;5029062;28;20401;-64
2021/12/02 06:26:54;;;;;;;41.05;4.35;;;;;;;;;;5019833;28;20048;-64
2021/12/02 06:29:20;;;;;;;46.85;5.40;;;;;;;;;;5013016;28;20687;-65
2021/12/02 06:31:46;;;;;;;40.28;4.38;;;;;;;;;;5032005;28;20111;-64
2021/12/02 06:34:12;;;;;;;48.72;5.63;;;;;;;;;;5026611;28;20036;-64
2021/12/02 06:36:38;;;;;;;47.10;5.15;;;;;;;;;;5023839;28;20025;-64
2021/12/02 06:39:04;;;;;;;41.67;4.72;;;;;;;;;;5016763;28;20033;-65
2021/12/02 06:41:31;;;;;;;44.47;5.00;;;;;;;;;;5029908;28;20107;-65
2021/12/02 06:43:57;;;;;;;38.35;4.47;;;;;;;;;;5023718;28;20025;-64
2021/12/02 06:46:23;;;;;;;52.72;6.05;;;;;;;;;;5023013;28;20598;-66
2021/12/02 06:48:49;;;;;;;47.10;5.25;;;;;;;;;;5019577;28;20059;-66
2021/12/02 06:51:15;;;;;;;45.00;5.35;;;;;;;;;;5027839;28;20552;-64
2021/12/02 06:53:42;;;;;;;56.53;5.97;;;;;;;;;;5030119;28;20021;-64
2021/12/02 06:56:08;;;;;;;49.78;5.03;;;;;;;;;;5020184;28;20482;-64
2021/12/02 06:58:34;;;;;;;41.20;4.95;;;;;;;;;;5022230;28;20033;-64
2021/12/02 07:01:00;;;;;;;40.53;4.65;;;;;;;;;;5024710;28;20071;-64
2021/12/02 07:03:26;;;;;;;33.50;4.07;;;;;;;;;;5024415;28;20053;-64
2021/12/02 07:05:52;;;;;;;39.38;4.30;;;;;;;;;;5018868;28;20823;-64
2021/12/02 07:08:20;;;;;;;45.60;5.15;;;;;;;;;;5026833;28;20037;-65
2021/12/02 07:10:46;;;;;;;38.80;4.28;;;;;;;;;;5021271;28;20154;-64
2021/12/02 07:13:12;;;;;;;52.10;6.47;;;;;;;;;;5029033;28;20136;-65
2021/12/02 07:15:50;;;;;;;43.95;5.20;;;;;;;;;;5024023;28;20034;-65
2021/12/02 07:18:16;;;;;;;47.25;4.90;;;;;;;;;;5025895;28;20756;-65
2021/12/02 07:20:42;;;;;;;40.15;4.63;;;;;;;;;;5024394;28;20022;-65
2021/12/02 07:23:08;;;;;;;50.90;6.25;;;;;;;;;;5031421;28;20113;-65
2021/12/02 07:25:34;;;;;;;36.53;4.13;;;;;;;;;;5022823;28;20033;-65
2021/12/02 07:28:01;;;;;;;36.35;4.35;;;;;;;;;;5025227;28;20488;-65
2021/12/02 07:30:27;;;;;;;37.60;4.63;;;;;;;;;;5018111;28;20029;-65
2021/12/02 07:32:53;;;;;;;30.77;3.75;;;;;;;;;;5028875;28;20039;-64
2021/12/02 07:35:19;;;;;;;32.50;5.07;;;;;;;;;;5029090;28;20029;-65
2021/12/02 07:37:45;;;;;;;19.33;2.78;;;;;;;;;;5017564;28;20022;-65
2021/12/02 07:40:11;;;;;;;29.33;4.43;;;;;;;;;;5022032;28;20713;-65
2021/12/02 07:42:37;;;;;;;19.92;3.35;;;;;;;;;;5026393;28;20030;-65
2021/12/02 07:45:03;;;;;;;4.22;1.48;;;;;;;;;;5026242;28;20026;-66
2021/12/02 07:47:29;;;;;;;4.25;2.15;;;;;;;;;;5021245;28;20036;-65
2021/12/02 07:49:55;;;;;;;5.93;2.08;;;;;;;;;;5013189;28;20026;-65
2021/12/02 07:52:21;;;;;;;8.02;2.67;;;;;;;;;;5037310;28;20060;-65
2021/12/02 07:54:47;;;;;;;9.90;3.08;;;;;;;;;;5028315;28;20780;-65
2021/12/02 07:57:13;;;;;;;6.57;2.40;;;;;;;;;;5023361;28;20051;-65
2021/12/02 07:59:39;;;;;;;11.13;2.70;;;;;;;;;;5028526;28;20436;-65
2021/12/02 08:02:05;;;;;;;4.97;2.60;;;;;;;;;;5026173;28;20176;-65
2021/12/02 08:04:31;;;;;;;10.50;3.17;;;;;;;;;;5032816;28;20060;-65
2021/12/02 08:06:57;;;;;;;10.85;3.17;;;;;;;;;;5019523;28;20165;-65
2021/12/02 08:09:23;;;;;;;4.78;2.35;;;;;;;;;;5026371;28;20033;-65
2021/12/02 08:11:49;;;;;;;9.63;3.35;;;;;;;;;;5028051;28;20083;-65
2021/12/02 08:14:17;;;;;;;9.75;3.10;;;;;;;;;;5027049;28;20041;-65
2021/12/02 08:16:43;;;;;;;9.98;3.92;;;;;;;;;;5028469;28;20033;-65
2021/12/02 08:19:09;;;;;;;9.23;3.22;;;;;;;;;;5017685;28;20036;-65
2021/12/02 08:21:35;;;;;;;8.88;2.70;;;;;;;;;;5021904;28;20029;-65
2021/12/02 08:24:01;;;;;;;11.27;2.60;;;;;;;;;;5029208;28;20033;-65
2021/12/02 08:26:27;;;;;;;9.23;2.95;;;;;;;;;;5027205;28;20037;-65
2021/12/02 08:28:53;;;;;;;9.98;2.97;;;;;;;;;;5024244;28;20057;-65
2021/12/02 08:31:19;;;;;;;8.65;2.90;;;;;;;;;;5019063;28;20452;-65
2021/12/02 08:33:48;;;;;;;11.20;3.08;;;;;;;;;;5035283;28;20029;-65
2021/12/02 08:36:14;;;;;;;9.88;3.08;;;;;;;;;;5023781;28;20041;-65
2021/12/02 08:38:40;;;;;;;9.93;2.80;;;;;;;;;;5028762;28;20037;-65
2021/12/02 08:41:06;;;;;;;12.07;3.15;;;;;;;;;;5017163;28;20056;-65
2021/12/02 08:43:32;;;;;;;7.50;3.53;;;;;;;;;;5033713;28;20033;-65
2021/12/02 08:45:58;;;;;;;7.93;3.13;;;;;;;;;;5025539;28;20038;-65
2021/12/02 08:48:24;;;;;;;8.30;3.08;;;;;;;;;;5019123;28;20053;-64
2021/12/02 08:50:50;;;;;;;9.57;3.25;;;;;;;;;;5015417;28;20512;-64
2021/12/02 08:53:16;;;;;;;8.07;2.70;;;;;;;;;;5025603;28;20072;-64
2021/12/02 08:55:43;;;;;;;8.02;2.80;;;;;;;;;;5026773;28;20163;-64
2021/12/02 08:58:09;;;;;;;10.07;3.13;;;;;;;;;;5023705;28;20548;-64
2021/12/02 09:00:36;;;;;;;8.43;3.03;;;;;;;;;;5021629;28;20065;-65
2021/12/02 09:03:02;;;;;;;10.98;3.35;;;;;;;;;;5024165;28;20029;-64
2021/12/02 09:05:28;;;;;;;11.00;3.47;;;;;;;;;;5026626;28;20405;-64
2021/12/02 09:07:54;;;;;;;9.45;3.08;;;;;;;;;;5027628;28;20040;-64
2021/12/02 09:10:25;;;;;;;7.57;2.75;;;;;;;;;;5025867;28;20108;-64
2021/12/02 09:12:51;;;;;;;7.82;2.95;;;;;;;;;;5023773;28;20116;-64
2021/12/02 09:15:17;;;;;;;6.57;2.83;;;;;;;;;;5027829;28;20112;-64
2021/12/02 09:17:43;;;;;;;9.63;3.22;;;;;;;;;;5019934;28;20757;-64
2021/12/02 09:20:09;;;;;;;8.95;2.88;;;;;;;;;;5019791;28;20055;-64
2021/12/02 09:22:35;;;;;;;8.25;2.55;;;;;;;;;;5018296;28;20022;-64
2021/12/02 09:25:01;;;;;;;9.10;3.38;;;;;;;;;;5024228;28;20394;-64
2021/12/02 09:27:27;;;;;;;7.13;2.70;;;;;;;;;;5025771;28;20169;-64
2021/12/02 09:29:53;;;;;;;5.82;2.45;;;;;;;;;;5021981;28;20025;-64
2021/12/02 09:32:19;;;;;;;10.48;2.95;;;;;;;;;;5020152;28;20140;-64
2021/12/02 09:34:45;;;;;;;11.38;3.03;;;;;;;;;;5026414;28;20076;-64
2021/12/02 09:37:11;;;;;;;11.85;3.00;;;;;;;;;;5028005;28;20029;-64
2021/12/02 09:39:37;;;;;;;13.77;3.10;;;;;;;;;;5018853;28;20055;-64
2021/12/02 09:42:05;;;;;;;22.77;3.90;;;;;;;;;;5020292;28;20057;-64
2021/12/02 09:44:31;;;;;;;29.52;4.30;;;;;;;;;;5028542;28;20638;-64
2021/12/02 09:46:57;;;;;;;36.75;5.35;;;;;;;;;;5021671;28;20577;-64
2021/12/02 09:49:24;;;;;;;31.70;4.40;;;;;;;;;;5025364;28;20111;-64
2021/12/02 09:54:23;;;;;;;27.35;5.53;;;;;;;;;;5027220;28;20211;-64
2021/12/02 09:56:52;;;;;;;44.55;5.22;;;;;;;;;;5021742;28;20029;-64
2021/12/02 10:01:52;;;;;;;45.47;6.03;;;;;;;;;;5021932;28;20039;-64
2021/12/02 10:04:20;;;;;;;31.67;4.88;;;;;;;;;;5021534;28;20072;-64
2021/12/02 10:06:46;;;;;;;16.35;2.95;;;;;;;;;;5025377;28;20043;-63
2021/12/02 10:09:14;;;;;;;23.90;4.55;;;;;;;;;;5020398;28;20116;-64
2021/12/02 10:14:17;;;;;;;20.75;4.25;;;;;;;;;;5017972;28;20409;-64
2021/12/02 10:16:44;;;;;;;23.65;4.80;;;;;;;;;;5024689;28;20033;-64
2021/12/02 10:19:13;;;;;;;17.63;3.35;;;;;;;;;;5020052;28;20038;-64
2021/12/02 10:24:08;;;;;;;22.02;4.30;;;;;;;;;;5022739;28;20121;-64
2021/12/02 10:26:34;;;;;;;22.55;4.15;;;;;;;;;;5023870;28;20034;-64
2021/12/02 10:29:00;;;;;;;26.05;4.03;;;;;;;;;;5022480;28;20083;-64
2021/12/02 10:31:26;;;;;;;24.85;4.75;;;;;;;;;;5021487;28;20028;-63
2021/12/02 10:33:53;;;;;;;38.80;4.75;;;;;;;;;;5024439;28;20043;-64
2021/12/02 10:36:19;;;;;;;40.20;5.35;;;;;;;;;;5028824;28;20484;-64
2021/12/02 10:38:45;;;;;;;32.80;4.97;;;;;;;;;;5026033;28;20039;-64
2021/12/02 10:41:11;;;;;;;22.73;3.90;;;;;;;;;;5019855;28;20494;-64
2021/12/02 10:43:37;;;;;;;25.42;3.90;;;;;;;;;;5022298;28;20037;-64
2021/12/02 10:46:03;;;;;;;33.03;4.63;;;;;;;;;;5028706;28;20064;-64
2021/12/02 10:48:29;;;;;;;32.10;4.28;;;;;;;;;;5019302;28;20057;-65
2021/12/02 10:50:55;;;;;;;34.25;4.50;;;;;;;;;;5017188;28;20036;-64
2021/12/02 10:53:21;;;;;;;27.30;4.68;;;;;;;;;;5018581;28;20402;-64
2021/12/02 10:55:47;;;;;;;30.58;4.78;;;;;;;;;;5026421;28;20030;-64
2021/12/02 10:58:13;;;;;;;32.13;4.70;;;;;;;;;;5019412;28;20036;-64
2021/12/02 11:00:43;;;;;;;32.45;5.25;;;;;;;;;;5025091;28;20754;-64
2021/12/02 11:03:12;;;;;;;40.60;7.15;;;;;;;;;;5017649;28;20044;-65
2021/12/02 11:05:38;;;;;;;28.13;4.05;;;;;;;;;;5033183;28;20547;-64
2021/12/02 11:08:07;;;;;;;32.13;4.05;;;;;;;;;;5025834;28;20030;-64
2021/12/02 11:10:32;;;;;;;27.75;4.07;;;;;;;;;;5025046;28;20092;-64
2021/12/02 11:12:58;;;;;;;29.30;4.07;;;;;;;;;;5027350;28;20528;-64
2021/12/02 11:15:24;;;;;;;30.50;4.65;;;;;;;;;;5035769;28;20679;-64
2021/12/02 11:17:50;;;;;;;30.30;4.32;;;;;;;;;;5026677;28;20030;-64
2021/12/02 11:20:16;;;;;;;26.20;4.05;;;;;;;;;;5018228;28;20041;-65
2021/12/02 11:22:42;;;;;;;29.65;4.13;;;;;;;;;;5025138;28;20021;-64
2021/12/02 11:25:08;;;;;;;20.48;3.35;;;;;;;;;;5028754;28;20108;-64
2021/12/02 11:27:34;;;;;;;17.88;3.50;;;;;;;;;;5024696;28;20389;-64
2021/12/02 11:30:00;;;;;;;23.65;4.88;;;;;;;;;;5033021;28;20060;-65
2021/12/02 11:32:26;;;;;;;28.60;5.25;;;;;;;;;;5009720;28;20146;-64
2021/12/02 11:34:52;;;;;;;24.83;4.25;;;;;;;;;;5026972;28;20075;-65
2021/12/02 11:37:18;;;;;;;22.02;4.22;;;;;;;;;;5032874;28;20033;-65
2021/12/02 11:39:44;;;;;;;23.85;3.88;;;;;;;;;;5023085;28;20557;-65
2021/12/02 11:42:10;;;;;;;20.50;3.97;;;;;;;;;;5026224;28;20080;-64
2021/12/02 11:44:36;;;;;;;15.30;2.90;;;;;;;;;;5026481;28;20033;-65
2021/12/02 11:47:02;;;;;;;20.85;3.88;;;;;;;;;;5029287;28;20087;-65
2021/12/02 11:49:29;;;;;;;23.75;4.22;;;;;;;;;;5029905;28;20033;-65
2021/12/02 11:51:55;;;;;;;23.08;4.38;;;;;;;;;;5025136;28;20061;-64
2021/12/02 11:54:21;;;;;;;33.33;4.82;;;;;;;;;;5022361;28;20184;-64
2021/12/02 11:56:47;;;;;;;30.85;4.55;;;;;;;;;;5032018;28;20025;-64
2021/12/02 11:59:15;;;;;;;32.08;5.07;;;;;;;;;;5027025;28;20041;-65
2021/12/02 12:01:43;;;;;;;33.55;4.45;;;;;;;;;;5023354;28;20401;-65
2021/12/02 12:04:09;;;;;;;22.55;4.03;;;;;;;;;;5019032;28;20044;-64
2021/12/02 12:06:35;;;;;;;31.55;4.50;;;;;;;;;;5030626;28;20674;-65
2021/12/02 12:09:03;;;;;;;27.73;3.88;;;;;;;;;;5027131;28;20465;-65
2021/12/02 12:11:29;;;;;;;21.52;3.47;;;;;;;;;;5024902;28;20487;-65
2021/12/02 12:13:55;;;;;;;27.73;4.65;;;;;;;;;;5018170;28;20032;-64
2021/12/02 12:16:22;;;;;;;18.00;3.78;;;;;;;;;;5021824;28;20457;-65
2021/12/02 12:18:47;;;;;;;18.88;3.95;;;;;;;;;;5023959;28;20030;-65
2021/12/02 12:21:13;;;;;;;19.35;3.83;;;;;;;;;;5018938;28;20048;-65
2021/12/02 12:23:40;;;;;;;19.77;3.58;;;;;;;;;;5019088;28;20148;-65
2021/12/02 12:26:06;;;;;;;24.52;4.22;;;;;;;;;;5023350;28;20040;-65
2021/12/02 12:28:32;;;;;;;20.80;3.60;;;;;;;;;;5029727;28;20578;-65
2021/12/02 12:30:58;;;;;;;21.02;3.85;;;;;;;;;;5029746;28;20034;-65
2021/12/02 12:33:24;;;;;;;22.00;4.05;;;;;;;;;;5017610;28;20026;-65
2021/12/02 12:38:22;;;;;;;20.90;4.63;;;;;;;;;;5029209;28;20094;-66
2021/12/02 12:40:49;;;;;;;19.75;3.45;;;;;;;;;;5029337;28;20029;-66
2021/12/02 12:43:15;;;;;;;20.17;4.28;;;;;;;;;;5022298;28;20033;-66
2021/12/02 12:45:44;;;;;;;18.50;3.63;;;;;;;;;;5012224;28;20038;-64
2021/12/02 12:48:10;;;;;;;17.20;3.65;;;;;;;;;;5020335;28;20386;-64
2021/12/02 12:50:36;;;;;;;15.52;3.25;;;;;;;;;;5025269;28;20040;-65
2021/12/02 12:53:02;;;;;;;25.95;4.55;;;;;;;;;;5023954;28;20029;-65
2021/12/02 12:55:28;;;;;;;22.40;4.05;;;;;;;;;;5020794;28;20025;-66
2021/12/02 12:57:54;;;;;;;19.85;3.45;;;;;;;;;;5033839;28;20029;-65
2021/12/02 13:00:20;;;;;;;20.10;3.53;;;;;;;;;;5022345;28;20030;-66
2021/12/02 13:02:46;;;;;;;22.90;3.28;;;;;;;;;;5022863;28;20025;-65
2021/12/02 13:05:12;;;;;;;11.02;2.75;;;;;;;;;;5017518;28;20806;-66
2021/12/02 13:07:40;;;;;;;21.98;4.13;;;;;;;;;;5030516;28;20040;-66
2021/12/02 13:10:09;;;;;;;21.23;3.47;;;;;;;;;;5029102;28;20026;-66
2021/12/02 13:12:35;;;;;;;20.00;3.22;;;;;;;;;;5025788;28;20044;-66
2021/12/02 13:15:01;;;;;;;12.70;3.72;;;;;;;;;;5015536;28;20034;-66
2021/12/02 13:17:27;;;;;;;8.38;2.92;;;;;;;;;;5033859;28;20029;-66
2021/12/02 13:19:53;;;;;;;10.23;3.05;;;;;;;;;;5027294;28;20032;-66
2021/12/02 13:22:19;;;;;;;9.85;2.78;;;;;;;;;;5020220;28;20529;-66
2021/12/02 13:24:45;;;;;;;5.22;2.33;;;;;;;;;;5018807;28;20029;-66
2021/12/02 13:27:11;;;;;;;6.13;2.28;;;;;;;;;;5032075;28;20060;-66
2021/12/02 13:29:37;;;;;;;5.80;2.65;;;;;;;;;;5027729;28;20037;-66
2021/12/02 13:32:03;;;;;;;7.57;2.40;;;;;;;;;;5026359;28;20515;-66
2021/12/02 13:34:29;;;;;;;12.77;2.72;;;;;;;;;;5021552;28;20055;-66
2021/12/02 13:36:57;;;;;;;7.47;2.70;;;;;;;;;;5024410;28;20139;-66
2021/12/02 13:39:25;;;;;;;7.32;2.70;;;;;;;;;;5028136;28;20045;-65
2021/12/02 13:42:01;;;;;;;6.07;2.42;;;;;;;;;;5024865;28;20678;-66
2021/12/02 13:44:28;;;;;;;7.72;2.88;;;;;;;;;;5020374;28;20045;-66
2021/12/02 13:46:54;;;;;;;7.55;3.08;;;;;;;;;;5018861;28;20572;-66
2021/12/02 13:49:20;;;;;;;5.75;2.33;;;;;;;;;;5030097;28;20551;-65
2021/12/02 13:54:31;;;;;;;7.68;2.70;;;;;;;;;;5017872;28;20029;-66
2021/12/02 13:56:59;;;;;;;4.68;2.40;;;;;;;;;;5009541;28;20498;-66
2021/12/02 13:59:27;;;;;;;5.75;2.05;;;;;;;;;;5008116;28;20082;-66
2021/12/02 14:01:53;;;;;;;9.55;3.08;;;;;;;;;;5023370;28;20087;-66
2021/12/02 14:04:19;;;;;;;11.05;2.97;;;;;;;;;;5017943;28;20453;-66
2021/12/02 14:06:45;;;;;;;12.50;3.75;;;;;;;;;;5017591;28;20037;-66
2021/12/02 14:09:11;;;;;;;9.30;3.08;;;;;;;;;;5028019;28;20026;-66
2021/12/02 14:11:37;;;;;;;9.85;3.05;;;;;;;;;;5025370;28;20026;-66
2021/12/02 14:14:03;;;;;;;7.22;2.42;;;;;;;;;;5016224;28;20076;-67
2021/12/02 14:16:29;;;;;;;11.77;3.20;;;;;;;;;;5022963;28;20116;-68
2021/12/02 14:18:58;;;;;;;12.18;3.40;;;;;;;;;;5024773;28;20553;-66
2021/12/02 14:21:24;;;;;;;2.47;0.77;;;;;;;;;;5027171;28;20041;-67
2021/12/02 14:23:50;;;;;;;4.15;0.88;;;;;;;;;;5026957;28;20765;-65
2021/12/02 14:26:16;;;;;;;2.15;1.27;;;;;;;;;;5017719;28;20088;-65
2021/12/02 14:28:42;;;;;;;6.72;2.92;;;;;;;;;;5022194;28;20049;-66
2021/12/02 14:31:08;;;;;;;19.15;3.00;;;;;;;;;;5025203;28;20748;-65
2021/12/02 14:33:34;;;;;;;3.90;0.75;;;;;;;;;;5028472;28;20652;-66
2021/12/02 14:36:00;;;;;;;1.67;0.95;;;;;;;;;;5025185;28;20040;-66
2021/12/02 14:38:26;;;;;;;13.82;1.00;;;;;;;;;;5030113;28;20476;-66
2021/12/02 14:40:53;;;;;;;9.68;2.05;;;;;;;;;;5026384;28;20044;-65
2021/12/02 14:43:19;;;;;;;2.90;0.63;;;;;;;;;;5026668;28;20408;-66
2021/12/02 14:45:45;;;;;;;3.38;1.05;;;;;;;;;;5018767;28;20909;-65
2021/12/02 14:48:11;;;;;;;0.98;0.63;;;;;;;;;;5027340;28;20112;-66
2021/12/02 14:50:37;;;;;;;2.67;0.70;;;3.10;99.90;;;;;;5026317;28;20918;-66
2021/12/02 14:53:06;;;;;;;2.13;0.70;;;;;;;;;;5020179;28;20021;-65
2021/12/02 14:55:32;;;;;;;6.45;0.75;;;2.80;99.90;;;;;;5026814;28;20038;-66
2021/12/02 14:57:58;;;;;;;1.50;0.60;;;2.50;99.90;;;;;;5023769;28;20907;-65